Overview Statistics Trail Chart Weather Telemetry Raw packets
 

This is the latest recevied weather packets stored in our database for station/object 4S6DRJ-13. If no packets are shown the sender has not sent any weather packets the latest 10 day(s).

<< 81 82 83 84 85 86 87 >>
Time Temp. Humidity Pressure Rain* Wind** Luminosity Snow
1788331465 31.67° C 68% 1010 hPa 0 mm 0.89 m/s, 51° 1135 W/m² -
1788331404 31.67° C 67% 1009.9 hPa 0 mm 2.68 m/s, 237° 373 W/m² -
1788331343 31.67° C 68% 1010 hPa 0 mm 1.79 m/s, 152° 1137 W/m² -
1788331282 31.67° C 68% 1009.9 hPa 0 mm 4.02 m/s, 283° 960 W/m² -
1788331222 31.11° C 71% 1009.9 hPa 0 mm 0.45 m/s, 243° 595 W/m² -
1788331160 31.11° C 70% 1010 hPa 0 mm 2.24 m/s, 191° 1139 W/m² -
1788331099 31.11° C 70% 1010 hPa 0 mm 1.34 m/s, 160° 1106 W/m² -
1788331038 31.11° C 70% 1010.1 hPa 0 mm 2.68 m/s, 214° 1137 W/m² -
1788330977 31.11° C 72% 1010 hPa 0 mm 1.34 m/s, 195° 1135 W/m² -
1788330917 31.11° C 71% 1010.1 hPa 0 mm 1.79 m/s, 218° 1135 W/m² -
1788330856 31.11° C 72% 1010.1 hPa 0 mm 1.34 m/s, 245° 455 W/m² -
1788330795 31.11° C 70% 1010.1 hPa 0 mm 3.58 m/s, 202° 1132 W/m² -
1788330673 31.11° C 71% 1010 hPa 0 mm 1.79 m/s, 218° 567 W/m² -
1788330612 31.67° C 70% 1010.1 hPa 0 mm 3.58 m/s, 254° 1140 W/m² -
1788330551 31.67° C 69% 1009.9 hPa 0 mm 3.13 m/s, 224° 458 W/m² -
1788330490 31.67° C 68% 1009.9 hPa 0 mm 2.68 m/s, 75° 378 W/m² -
1788330429 31.67° C 69% 1010.1 hPa 0 mm 1.34 m/s, 221° 350 W/m² -
1788330368 31.67° C 70% 1010 hPa 0 mm 0 m/s 1133 W/m² -
1788330307 31.67° C 70% 1010.1 hPa 0 mm 0.89 m/s, 208° 1129 W/m² -
1788330246 31.67° C 70% 1010.2 hPa 0 mm 2.24 m/s, 146° 1127 W/m² -
1788330185 31.67° C 69% 1010.1 hPa 0 mm 0.89 m/s, 207° 273 W/m² -
1788330124 31.67° C 69% 1010.3 hPa 0 mm 3.13 m/s, 203° 277 W/m² -
1788330063 31.67° C 69% 1010.2 hPa 0 mm 2.68 m/s, 225° 1134 W/m² -
1788330002 31.67° C 68% 1010.4 hPa 0 mm 2.68 m/s, 322° 868 W/m² -
1788329941 31.67° C 70% 1010.2 hPa 0 mm 1.34 m/s, 281° 1132 W/m² -

* Rain latest hour (hover to see other rain measurements)
** Current wind speed in m/s (hover to see current wind gust speed)